• Join FlightAware (Why Join?)
  • Login
  • US Flag 
03:39PM EDT


 

Airport Tracker/Info


-or-


 

Live Flight TrackerFlight Track Log ✈ SWA2855 ✈ 13-Jun-2013 ✈ KDEN - KPHL

Flight Track Log - Related Links

Times and Time Zones

All times are in EDT time to prevent confusion due to time zone crossing. See the SWA2855 flight status page for this flight to view local times or setup timezone preferences in your user account.

Time Position Orientation Groundspeed Altitude Reporting Facility
EDT Latitude Longitude Course Direction KTS MPH feet Rate Location/Type
11:25AM 39.9500 -104.6333 90° East 244 281 8,000  Level Denver TRACON
11:26AM 39.9978 -104.6000 28° Northeast 256 295 9,800 2,040 Climbing Denver Center
11:27AM 40.0481 -104.5242 49° Northeast 295 339 11,800 1,560 Climbing Denver Center
11:28AM 40.0239 -104.3964 104° East 344 396 13,100 1,920 Climbing Denver Center
11:29AM 39.9972 -104.2617 104° East 381 438 15,800 2,520 Climbing Denver Center
11:30AM 39.8833 -103.6806 90° East  Level FlightAware Approximate
11:30AM 39.9656 -104.1144 106° East 392 451 18,400  Level Denver Center
11:31AM 39.9356 -103.9725 105° East 403 464 20,800 2,040 Climbing Denver Center
11:32AM 39.9031 -103.8244 106° East 423 487 22,700 1,980 Climbing Denver Center
11:33AM 39.8917 -103.6639 95° East 423 487 25,000 1,920 Climbing Denver Center
11:34AM 39.9094 -103.5006 82° East 452 520 26,800 1,620 Climbing Denver Center
11:35AM 39.9292 -103.3342 81° East 464 534 28,400 1,500 Climbing Denver Center
11:36AM 39.9514 -103.1636 80° East 477 549 29,900 1,680 Climbing Denver Center
11:37AM 39.9903 -102.9611 76° East 481 554 31,900 1,500 Climbing Denver Center
11:38AM 40.0194 -102.7889 77° East 486 559 33,000 480 Climbing Denver Center
11:39AM 40.0472 -102.6169 78° East 491 565 33,000  Level Denver Center
11:40AM 40.0797 -102.4247 77° East 486 559 33,000  Level Denver Center
11:41AM 40.1086 -102.2592 77° East 488 562 33,100 660 Climbing Denver Center
11:42AM 40.1358 -102.0939 78° East 487 560 34,400 1,200 Climbing Denver Center
11:43AM 40.1672 -101.9008 78° East 488 562 35,600 1,140 Climbing Denver Center
11:44AM 40.1944 -101.7358 78° East 487 560 36,800 660 Climbing Denver Center
11:45AM 40.2250 -101.5411 78° East 490 564 37,000 60 Climbing Denver Center
11:46AM 40.2517 -101.3761 78° East 487 560 37,000  Level Denver Center
11:47AM 40.2814 -101.1828 79° East 487 560 37,000  Level Denver Center
11:48AM 40.3072 -101.0192 78° East 484 557 37,000  Level Denver Center
11:49AM 40.3367 -100.8286 78° East 482 555 37,000  Level Denver Center
11:50AM 40.3619 -100.6650 78° East 483 556 37,000  Level Denver Center
11:52AM 40.3900 -100.4736 79° East 483 556 37,000  Level Denver Center
11:53AM 40.4144 -100.3094 79° East 482 555 37,000  Level Denver Center
11:54AM 40.4433 -100.1175 79° East 483 556 37,000  Level Denver Center
11:55AM 40.4675 -99.9519 79° East 484 557 37,000  Level Denver Center
11:56AM 40.4942 -99.7694 79° East 484 557 37,000  Level Denver Center
11:57AM 40.5194 -99.5947 79° East 487 560 37,000  Level Denver Center
11:58AM 40.5361 -99.4186 83° East 486 559 37,000  Level Denver Center
11:59AM 40.5447 -99.2058 87° East 488 562 37,000  Level Denver Center
12:00PM 40.5472 -99.0267 89° East 492 566 37,000  Level Denver Center
12:01PM 40.5492 -98.8125 89° East 492 566 37,000  Level Denver Center
12:02PM 40.5475 -98.6336 91° East 493 567 37,000  Level Denver Center
12:03PM 40.5469 -98.4186 90° East 493 567 37,000  Level Denver Center
12:04PM 40.5556 -98.2422 86° East 490 564 37,000  Level Minneapolis Center
12:05PM 40.5656 -98.0636 86° East 492 566 37,000  Level Minneapolis Center
12:06PM 40.5722 -97.8853 87° East 491 565 37,000  Level Minneapolis Center
12:07PM 40.5789 -97.7075 87° East 489 563 37,000  Level Minneapolis Center
12:08PM 40.5881 -97.4925 87° East 491 565 37,000  Level Minneapolis Center
12:09PM 40.5961 -97.3186 86° East 489 563 37,000  Level Minneapolis Center
12:10PM 40.6028 -97.1397 87° East 491 565 37,000  Level Minneapolis Center
12:11PM 40.6097 -96.9603 87° East 491 565 37,000  Level Minneapolis Center
12:12PM 40.6164 -96.7814 87° East 492 566 37,000  Level Minneapolis Center
12:13PM 40.6236 -96.6033 87° East 490 564 37,000  Level Minneapolis Center
12:15PM 40.6297 -96.3892 88° East 491 565 37,000  Level Minneapolis Center
12:16PM 40.6364 -96.2081 87° East 495 570 37,000  Level Minneapolis Center
12:17PM 40.6422 -96.0278 87° East 496 571 37,000  Level Minneapolis Center
12:18PM 40.6467 -95.8486 88° East 496 571 37,000  Level Minneapolis Center
12:19PM 40.6517 -95.6697 88° East 494 568 37,000  Level Minneapolis Center
12:20PM 40.6583 -95.4514 88° East 498 573 37,000  Level Minneapolis Center
12:21PM 40.6633 -95.2714 88° East 496 571 37,000  Level Minneapolis Center
12:22PM 40.6672 -95.0906 88° East 495 570 37,000  Level Minneapolis Center
12:23PM 40.6703 -94.9094 89° East 498 573 37,000  Level Minneapolis Center
12:24PM 40.6742 -94.7289 88° East 496 571 37,000  Level Minneapolis Center
12:25PM 40.6781 -94.5239 89° East 496 571 37,000  Level Minneapolis Center
12:26PM 40.6794 -94.3458 89° East 493 567 37,000  Level Minneapolis Center
12:27PM 40.6831 -94.1669 88° East 492 566 37,000  Level Minneapolis Center
12:28PM 40.6850 -93.9875 89° East 494 568 37,000  Level Minneapolis Center
12:29PM 40.6869 -93.7717 89° East 495 570 37,000  Level Minneapolis Center
12:30PM 40.6894 -93.5925 89° East 493 567 37,000  Level Minneapolis Center
12:31PM 40.6906 -93.4831 89° East 494 568 37,000  Level Chicago Center
12:32PM 40.6914 -93.3039 90° East 493 567 37,000  Level Chicago Center
12:33PM 40.6928 -93.1267 89° East 487 560 37,000  Level Chicago Center
12:34PM 40.6931 -92.9467 90° East 492 566 37,000  Level Chicago Center
12:35PM 40.6933 -92.7711 90° East 482 555 37,000  Level Chicago Center
12:36PM 40.6939 -92.5925 90° East 485 558 37,000  Level Chicago Center
12:37PM 40.6936 -92.3781 90° East 487 560 37,000  Level Chicago Center
12:38PM 40.6925 -92.2003 90° East 486 559 37,000  Level Chicago Center
12:39PM 40.6914 -92.0228 90° East 486 559 37,000  Level Chicago Center
12:40PM 40.6906 -91.8475 90° East 483 556 37,000  Level Chicago Center
12:41PM 40.6903 -91.6728 90° East 480 552 37,000  Level Chicago Center
12:42PM 40.6881 -91.4978 91° East 481 554 37,000  Level Chicago Center
12:43PM 40.6867 -91.2881 90° East 479 551 37,000  Level Chicago Center
12:44PM 40.6889 -91.1308 89° East 478 550 37,000  Level Chicago Center
12:45PM 40.6944 -90.9567 88° East 475 547 37,000  Level Chicago Center
12:46PM 40.6978 -90.7458 89° East 480 552 37,000  Level Chicago Center
12:47PM 40.7008 -90.5697 89° East 481 554 37,000  Level Chicago Center
12:48PM 40.7039 -90.3944 89° East 480 552 37,000  Level Chicago Center
12:49PM 40.7069 -90.1992 89° East 479 551 37,000  Level Chicago Center
12:50PM 40.7097 -90.0256 89° East 476 548 37,000  Level Chicago Center
12:51PM 40.7106 -89.8503 90° East 480 552 37,000  Level Chicago Center
12:52PM 40.7089 -89.6753 91° East 483 556 37,000  Level Chicago Center
12:53PM 40.7153 -89.4983 87° East 487 560 37,000  Level Chicago Center
12:54PM 40.7161 -89.3239 90° East 479 551 37,000  Level Chicago Center
12:55PM 40.7172 -89.1139 90° East 477 549 37,000  Level Chicago Center
12:56PM 40.7175 -88.9403 90° East 475 547 37,000  Level Chicago Center
12:58PM 40.7186 -88.7767 89° East 471 542 37,000  Level Chicago Center
12:59PM 40.7194 -88.5669 90° East 479 551 37,000  Level Chicago Center
01:00PM 40.7189 -88.3917 90° East 481 554 37,000  Level Chicago Center
01:01PM 40.7197 -88.2175 90° East 482 555 37,000  Level Chicago Center
01:02PM 40.7192 -88.0419 90° East 484 557 37,000  Level Chicago Center
01:03PM 40.7189 -87.8683 90° East 482 555 37,000  Level Chicago Center
01:04PM 40.7189 -87.6567 90° East 487 560 37,000  Level Chicago Center
01:05PM 40.7169 -87.4833 91° East 480 552 37,000  Level Chicago Center
01:06PM 40.7153 -87.3058 91° East 488 562 37,000  Level Chicago Center
01:07PM 40.7142 -87.1267 90° East 496 571 37,000  Level Chicago Center
01:08PM 40.7111 -86.9097 91° East 500 575 37,000  Level Chicago Center
01:09PM 40.7089 -86.7278 91° East 502 578 37,000  Level Chicago Center
01:10PM 40.7033 -86.5367 92° East 495 570 37,000  Level Chicago Center
01:11PM 40.7008 -86.3564 91° East 495 570 37,000  Level Chicago Center
01:12PM 40.6967 -86.1789 92° East 489 563 37,000  Level Chicago Center
01:13PM 40.6936 -86.0031 91° East 484 557 37,000  Level Chicago Center
01:14PM 40.6892 -85.8283 92° East 483 556 37,000  Level Chicago Center
01:16PM 40.6817 -85.5503 92° East 477 549 37,000  Level Chicago Center
01:17PM 40.6772 -85.3781 92° East 476 548 37,000  Level Chicago Center
01:18PM 40.6725 -85.2047 92° East 475 547 37,000  Level Chicago Center
01:19PM 40.6667 -85.0331 93° East 475 547 37,000  Level Chicago Center
01:19PM 40.6608 -84.8703 93° East 480 552 37,000  Level Indianapolis Center
01:20PM 40.6311 -84.7003 103° East 477 549 37,000  Level Indianapolis Center
01:22PM 40.6042 -84.5272 102° East 477 549 37,000  Level Indianapolis Center
01:23PM 40.5808 -84.3542 100° East 476 548 37,000  Level Indianapolis Center
01:24PM 40.5589 -84.1833 100° East 471 542 37,000  Level Indianapolis Center
01:25PM 40.5511 -84.0078 93° East 473 544 37,000  Level Indianapolis Center
01:26PM 40.5481 -83.8319 91° East 474 545 37,000  Level Indianapolis Center
01:27PM 40.5442 -83.6547 92° East 479 551 37,000  Level Indianapolis Center
01:28PM 40.5386 -83.4781 92° East 478 550 37,000  Level Indianapolis Center
01:29PM 40.5322 -83.2714 92° East 479 551 37,000  Level Indianapolis Center
01:30PM 40.5289 -83.1194 92° East 480 552 37,000  Level Indianapolis Center
01:31PM 40.5225 -82.9156 92° East 475 547 37,000  Level Indianapolis Center
01:32PM 40.5164 -82.7411 93° East 475 547 37,000  Level Indianapolis Center
01:33PM 40.5094 -82.5658 93° East 477 549 37,000  Level Indianapolis Center
01:34PM 40.5039 -82.3900 92° East 479 551 37,000  Level Indianapolis Center
01:35PM 40.4972 -82.2169 93° East 476 548 37,000  Level Indianapolis Center
01:36PM 40.4900 -82.0403 93° East 479 551 37,000  Level Indianapolis Center
01:37PM 40.4831 -81.8639 93° East 481 554 37,000  Level Indianapolis Center
01:38PM 40.4750 -81.6903 93° East 478 550 37,000  Level Indianapolis Center
01:38PM 40.4711 -81.5956 93° East 479 551 37,000  Level Cleveland Center
01:39PM 40.4622 -81.4181 94° East 479 551 37,000  Level Cleveland Center
01:40PM 40.4572 -81.2297 92° East 479 551 37,000  Level Cleveland Center
01:41PM 40.4478 -81.0550 94° East 479 551 37,000  Level Cleveland Center
01:42PM 40.4400 -80.8778 93° East 479 551 37,000  Level Cleveland Center
01:43PM 40.4297 -80.7003 94° East 479 551 37,000  Level Cleveland Center
01:44PM 40.4217 -80.5286 93° East 479 551 37,000  Level Cleveland Center
01:45PM 40.4131 -80.3567 94° East 479 551 37,000  Level Cleveland Center
01:46PM 40.4042 -80.2014 94° East 479 551 37,000  Level Cleveland Center
01:47PM 40.3972 -80.0269 93° East 479 551 37,000  Level Cleveland Center
01:48PM 40.3922 -79.8497 92° East 479 551 37,000  Level Cleveland Center
01:49PM 40.3847 -79.6781 93° East 479 551 37,000 -600 Level Cleveland Center
01:50PM 40.3747 -79.5094 94° East 479 551 35,900 -1,140 Descending Cleveland Center
01:51PM 40.3689 -79.3458 93° East 466 536 34,800 -1,080 Descending Cleveland Center
01:52PM 40.3589 -79.1853 95° East 451 519 33,800 -900 Descending Cleveland Center
01:53PM 40.3483 -79.0222 95° East 441 507 33,000 -420 Descending Cleveland Center
01:54PM 40.3394 -78.8481 94° East 452 520 33,000  Level Cleveland Center
01:55PM 40.3300 -78.6494 94° East 485 558 33,000 -300 Level Cleveland Center
01:56PM 40.3186 -78.4781 95° East 485 558 32,400 -1,980 Descending Cleveland Center
01:57PM 40.3131 -78.2958 92° East 490 564 29,100 -2,520 Descending Cleveland Center
01:59PM 40.3131 -78.0719 90° East 510 587 26,400 -1,740 Descending New York Center
02:00PM 40.3131 -77.9006 90° East 496 571 25,000 -720 Descending New York Center
02:01PM 40.3092 -77.7203 92° East 466 536 25,000  Level New York Center
02:02PM 40.2892 -77.5606 99° East 449 517 25,000  Level New York Center
02:03PM 40.2692 -77.4006 99° East 449 517 25,000 -1,020 Level New York Center
02:04PM 40.2467 -77.2433 101° East 443 510 23,100 -2,040 Descending New York Center
02:05PM 40.2256 -77.0919 100° East 435 501 21,000 -1,860 Descending New York Center
02:06PM 40.2111 -76.9736 99° East 420 483 19,400 -1,020 Descending New York Center
02:07PM 40.1889 -76.7978 99° East 429 494 19,000 -840 Descending New York Center
02:08PM 40.1736 -76.6442 97° East 429 494 17,800 -1,500 Descending New York Center
02:09PM 40.1569 -76.4744 97° East 429 494 16,100 -1,800 Descending New York Center
02:10PM 40.1411 -76.3264 98° East 414 476 14,200 -1,860 Descending New York Center
02:11PM 40.1286 -76.1925 97° East 408 470 12,400 -1,860 Descending New York Center
02:12PM 40.1161 -76.0531 97° East 402 463 10,600 -1,320 Descending New York Center
02:13PM 40.0994 -75.9106 99° East 371 427 9,800 -1,080 Descending New York Center
02:14PM 40.0836 -75.7928 100° East 347 399 8,500 -1,200 Descending New York Center
02:15PM 40.0819 -75.6842 91° East 336 387 7,500 -1,320 Descending New York Center
02:16PM 40.0894 -75.5544 86° East 331 381 6,000 -780 Descending New York Center
02:17PM 40.0939 -75.4461 87° East 326 375 6,000  Level New York Center
02:18PM 40.0667 -75.3000 104° East 310 357 6,000  Level Philadelphia TRACON
02:19PM 40.0167 -75.2167 128° Southeast 302 348 6,000  Level Philadelphia TRACON
02:20PM 40.0167 -75.1333 90° East 285 328 6,000 -60 Level Philadelphia TRACON
02:21PM 40.0333 -75.0500 75° East 255 293 5,900 -600 Descending Philadelphia TRACON
02:22PM 40.0333 -74.9500 90° East 232 267 4,800 -960 Descending Philadelphia TRACON
02:23PM 40.0000 -74.9333 159° South 173 199 4,000 -960 Descending Philadelphia TRACON
02:24PM 39.9500 -74.9333 180° South 168 193 3,000 -540 Descending Philadelphia TRACON
02:25PM 39.9333 -74.9833 247° West 167 192 3,000 -480 Level Philadelphia TRACON
02:26PM 39.9167 -75.0333 247° West 180 207 2,200 -600 Descending Philadelphia TRACON
02:27PM 39.9000 -75.1000 252° West 171 197 1,800 -600 Descending Philadelphia TRACON
02:28PM 39.8833 -75.1500 247° West 144 166 1,000 -720 Descending Philadelphia TRACON
02:29PM 39.8833 -75.2167 270° West 142 163 300 -660 Descending Philadelphia TRACON
02:31PM 39.8667 -75.2333 231° Southwest  Level FlightAware Approximate